Impacts METAR Board
IDs:

KDTW - Detroit Metro/Wayne, MI, US

Updated at: 1600 UTC 20 Aug 2019
Potential Impact None Slight Moderate High
Time 20/04Z 20/05Z 20/06Z 20/07Z 20/08Z 20/09Z 20/10Z 20/11Z 20/12Z 20/13Z 20/14Z 20/15Z 20/16Z
Temp74 74 73 73 72 71 72 71 73 77 79 82 83
Dewpt69 69 69 70 69 69 69 69 69 72 72 70 71
Altim30.06 30.06 30.06 30.07 30.07 30.07 30.07 30.07 30.06 30.04 30.07 30.07 30.05
VIS5 6 5 5 4 2 3 3 4 6 8 10 10
CIG75 70 220 220 220 110 100 100 220 100 230 250 250
CoverBKNBKNBKNBKNBKNBKNOVCOVCBKNBKNBKNOVCOVC
FltCatMVFRVFRMVFRMVFRMVFRIFRMVFRMVFRMVFRVFRVFRVFRVFR
WXHZHZBRBRBRBRBRBRBRHZ------
WDir190180180170018002200170210170190
WSpd3 3 3 3 0 4 0 3 0 5 5 7 9
WGst-- -- -- -- -- -- -- -- -- -- -- -- --
Raw hourly METARs
KDTW 200353Z 19003KT 5SM HZ BKN075 23/21 A3006 RMK AO2 SLP175 T02330206
KDTW 200453Z 18003KT 6SM HZ BKN070 23/21 A3006 RMK AO2 SLP175 T02330206 402890189
KDTW 200553Z 18003KT 5SM BR SCT070 BKN220 23/21 A3006 RMK AO2 SLP175 T02280206 10267 20228 51003
KDTW 200653Z 17003KT 5SM BR FEW070 BKN220 23/21 A3007 RMK AO2 SLP177 T02280211
KDTW 200753Z 00000KT 4SM BR FEW070 BKN220 22/21 A3007 RMK AO2 SLP178 T02220206
KDTW 200853Z 18004KT 2SM BR FEW060 BKN110 BKN220 22/21 A3007 RMK AO2 TWR VIS 4 SLP180 T02170206 52004
KDTW 200953Z 00000KT 3SM BR FEW065 BKN100 OVC220 22/21 A3007 RMK AO2 TWR VIS 4 SLP177 T02220206
KDTW 201053Z 22003KT 3SM BR FEW080 BKN100 OVC220 22/21 A3007 RMK AO2 TWR VIS 8 SLP178 T02170206
KDTW 201153Z 00000KT 4SM BR SCT100 BKN220 23/21 A3006 RMK AO2 SLP174 T02280206 10228 20217 58006
KDTW 201253Z 17005KT 6SM HZ FEW080 BKN100 BKN220 25/22 A3004 RMK AO2 SLP167 T02500222 $
KDTW 201353Z 21005KT 8SM FEW100 BKN230 26/22 A3007 RMK AO2 SLP178 T02610222 $
KDTW 201453Z 17007KT 10SM FEW030 SCT140 OVC250 28/21 A3007 RMK AO2 SLP177 T02780211 53003 $
KDTW 201553Z 19009KT 10SM FEW030 SCT140 OVC250 28/22 A3005 RMK AO2 SLP172 T02830217 $



Page loaded:  16:06 UTC  |   09:06 AM Pacific  |   10:06 AM Mountain  |   11:06 AM Central  |   12:06 PM Eastern

 

ADVISORIES

FORECASTS

FORECASTS

OBSERVATIONS

USER TOOLS

ABOUT US